Data for 03/20/2017

Time Sea-Level Adjusted Pressure Absolute Pressure Temperature Relative Humidity Dew Point   
(mb) (inHg) (mb) (inHg) (C) (F) (%) (C) (F)
00:05 1020 30.12 849 25.07 4.2 39.6 87 2.2 35.9
00:10 1020 30.12 849 25.07 4.4 39.9 85 2.2 35.9
00:15 1020 30.12 849 25.07 4.5 40.1 85 2.2 35.9
00:20 1020 30.12 850 25.1 4.5 40.1 84 2 35.5
00:25 1020 30.12 850 25.1 4.6 40.3 83 1.9 35.5
00:30 1020 30.12 850 25.1 4.7 40.5 83 2 35.6
00:35 1020 30.12 849 25.07 4.7 40.4 81 1.6 34.9
00:40 1020 30.12 850 25.1 4.7 40.4 82 1.9 35.3
00:45 1020 30.12 850 25.1 4.7 40.4 82 1.9 35.4
00:50 1020 30.12 850 25.1 4.7 40.5 81 1.7 35.1
00:55 1020 30.12 850 25.1 4.7 40.5 81 1.8 35.3
01:00 1020 30.12 850 25.1 4.6 40.3 84 2.1 35.7
01:05 1020 30.12 850 25.1 4.5 40 84 2 35.6
01:10 1020 30.12 850 25.1 4.4 39.9 84 1.9 35.4
01:15 1021 30.15 850 25.1 4.4 39.9 85 2.1 35.7
01:20 1021 30.15 850 25.1 4.4 39.8 85 2.1 35.8
01:25 1020 30.12 850 25.1 4.2 39.5 86 2.1 35.8
01:30 1020 30.12 850 25.1 4 39.2 87 2 35.6
01:35 1021 30.15 850 25.1 4 39.2 87 2 35.7
01:40 1021 30.15 850 25.1 4.1 39.4 87 2.1 35.7
01:45 1021 30.15 850 25.1 4.1 39.3 86 2 35.6
01:50 1021 30.15 850 25.1 4.2 39.5 86 2 35.6
01:55 1021 30.15 850 25.1 4.3 39.8 84 1.8 35.3
02:00 1021 30.15 850 25.1 4.5 40.1 83 1.8 35.2
02:05 1021 30.15 850 25.1 4.6 40.3 82 1.8 35.3
02:10 1021 30.15 850 25.1 4.6 40.2 82 1.7 35.1
02:15 1021 30.15 850 25.1 4.5 40.1 83 1.8 35.3
02:20 1021 30.15 850 25.1 4.4 40 84 1.9 35.4
02:25 1021 30.15 850 25.1 4.4 39.9 83 1.8 35.2
02:30 1021 30.15 850 25.1 4.6 40.4 82 1.9 35.3
02:35 1021 30.15 850 25.1 4.5 40.1 84 2 35.6
02:40 1021 30.15 850 25.1 4.4 39.8 84 1.9 35.4
02:45 1021 30.15 850 25.1 4.2 39.6 85 1.8 35.3
02:50 1021 30.15 850 25.1 4.2 39.5 85 1.8 35.3
02:55 1021 30.15 850 25.1 4.2 39.5 84 1.7 35.1
03:00 1021 30.15 850 25.1 4.3 39.7 84 1.7 35.1
03:05 1021 30.15 850 25.1 4.2 39.6 85 1.9 35.3
03:10 1021 30.15 850 25.1 4.2 39.5 85 1.8 35.3
03:15 1021 30.15 850 25.1 4.2 39.5 85 1.9 35.4
03:20 1021 30.15 850 25.1 4.2 39.6 86 2 35.6
03:25 1021 30.15 850 25.1 4.2 39.6 86 2 35.6
03:30 1021 30.15 850 25.1 4.4 39.9 85 2.1 35.8
03:35 1021 30.15 850 25.1 4.5 40.1 82 1.8 35.2
03:40 1021 30.15 850 25.1 4.5 40.1 83 1.8 35.2
03:45 1021 30.15 850 25.1 4.5 40.1 83 1.8 35.2
03:50 1021 30.15 850 25.1 4.5 40.1 83 1.8 35.3
03:55 1021 30.15 850 25.1 4.5 40.1 83 1.9 35.3
04:00 1021 30.15 850 25.1 4.4 40 84 2 35.6
04:05 1021 30.15 850 25.1 4.4 39.9 84 1.9 35.4
04:10 1021 30.15 850 25.1 4.4 39.9 84 2 35.6
04:15 1021 30.15 850 25.1 4.2 39.6 85 2 35.6
04:20 1021 30.15 850 25.1 4 39.2 86 1.9 35.5
04:25 1021 30.15 850 25.1 3.9 39 87 1.9 35.4
04:30 1021 30.15 850 25.1 4 39.1 87 2 35.5
04:35 1021 30.15 850 25.1 4 39.2 87 2 35.5
04:40 1021 30.15 850 25.1 4 39.1 87 2 35.5
04:45 1021 30.15 850 25.1 3.9 39 87 1.9 35.4
04:50 1021 30.15 850 25.1 3.8 38.9 87 1.9 35.4
04:55 1021 30.15 850 25.1 3.6 38.5 88 1.8 35.2
05:00 1021 30.15 850 25.1 3.7 38.6 87 1.8 35.2
05:05 1021 30.15 850 25.1 3.7 38.6 87 1.7 35.1
05:10 1021 30.15 850 25.1 3.6 38.5 87 1.7 35
05:15 1021 30.15 850 25.1 3.5 38.4 87 1.6 35
05:20 1021 30.15 850 25.1 3.5 38.3 87 1.6 34.9
05:25 1021 30.15 850 25.1 3.4 38.1 87 1.5 34.7
05:30 1021 30.15 850 25.1 3.3 37.9 88 1.5 34.7
05:35 1021 30.15 850 25.1 3.3 37.9 88 1.5 34.7
05:40 1021 30.15 850 25.1 3.3 38 88 1.5 34.7
05:45 1021 30.15 850 25.1 3.4 38 87 1.5 34.6
05:50 1021 30.15 850 25.1 3.3 38 87 1.4 34.5
05:55 1021 30.15 850 25.1 3.2 37.8 87 1.3 34.3
06:00 1021 30.15 850 25.1 3.3 38 86 1.2 34.1
06:05 1021 30.15 850 25.1 3.4 38.1 85 1.2 34.1
06:10 1021 30.15 850 25.1 3.4 38.2 84 0.9 33.7
06:15 1021 30.15 850 25.1 3.4 38.2 84 0.9 33.6
06:20 1021 30.15 851 25.13 3.3 38 83 0.8 33.4
06:25 1021 30.15 851 25.13 3.3 38 82 0.5 33
06:30 1021 30.15 851 25.13 3.4 38.2 80 0.3 32.5
06:35 1021 30.15 851 25.13 3.5 38.4 78 0 32.1
06:40 1021 30.15 851 25.13 3.6 38.5 75 -0.3 31.4
06:45 1021 30.15 851 25.13 3.6 38.6 75 -0.4 31.4
06:50 1021 30.15 851 25.13 3.7 38.7 76 -0.1 31.8
06:55 1021 30.15 851 25.13 3.6 38.4 76 -0.3 31.4
07:00 1022 30.18 851 25.13 3.5 38.4 76 -0.4 31.3
07:05 1021 30.15 851 25.13 3.5 38.3 76 -0.4 31.3
07:10 1021 30.15 851 25.13 3.4 38.2 76 -0.3 31.4
07:15 1021 30.15 851 25.13 3.2 37.7 76 -0.6 30.9
07:20 1021 30.15 851 25.13 3 37.4 79 -0.3 31.5
07:25 1021 30.15 851 25.13 2.9 37.2 82 0.2 32.3
07:30 1021 30.15 851 25.13 2.8 37.1 83 0.2 32.4
07:35 1022 30.18 851 25.13 2.8 37.1 84 0.4 32.7
07:40 1022 30.18 851 25.13 2.8 37.1 84 0.5 32.8
07:45 1022 30.18 851 25.13 2.8 37 85 0.5 33
07:50 1022 30.18 851 25.13 2.8 37 85 0.4 32.8
07:55 1022 30.18 851 25.13 2.8 37 83 0.1 32.2
08:00 1022 30.18 851 25.13 2.9 37.2 80 -0.2 31.7
08:05 1022 30.18 851 25.13 3.1 37.5 80 0 32
08:10 1022 30.18 851 25.13 3.2 37.7 78 -0.4 31.3
08:15 1022 30.18 851 25.13 3.3 38 76 -0.6 31
08:20 1022 30.18 851 25.13 3.4 38.1 67 -2 28.3
08:25 1022 30.18 851 25.13 3.6 38.4 71 -1.3 29.7
08:30 1022 30.18 851 25.13 3.7 38.7 69 -1.5 29.4
08:35 1022 30.18 851 25.13 3.9 39 69 -1.3 29.7
08:40 1022 30.18 851 25.13 3.9 39 69 -1.2 29.8
08:45 1022 30.18 851 25.13 3.8 38.9 72 -0.8 30.6
08:50 1022 30.18 851 25.13 3.6 38.5 77 -0.1 31.8
08:55 1022 30.18 851 25.13 3.4 38 77 -0.3 31.4
09:00 1022 30.18 851 25.13 3.1 37.6 78 -0.3 31.4
09:05 1022 30.18 851 25.13 3 37.4 78 -0.4 31.3
09:10 1022 30.18 852 25.16 2.9 37.2 78 -0.5 31
09:15 1022 30.18 852 25.16 2.9 37.3 76 -0.9 30.4
09:20 1022 30.18 852 25.16 2.8 37.1 76 -1 30.3
09:25 1022 30.18 852 25.16 2.7 36.9 76 -1 30.1
09:30 1022 30.18 852 25.16 2.7 36.8 76 -1.2 29.9
09:35 1022 30.18 852 25.16 2.6 36.6 76 -1.3 29.7
09:40 1022 30.18 852 25.16 2.5 36.6 73 -1.8 28.8
09:45 1022 30.18 852 25.16 2.5 36.5 74 -1.7 28.9
09:50 1022 30.18 852 25.16 2.4 36.3 73 -1.9 28.6
09:55 1022 30.18 852 25.16 2.4 36.3 74 -1.7 28.9
10:00 1022 30.18 852 25.16 2.3 36.2 74 -1.8 28.7
10:05 1023 30.21 852 25.16 2.4 36.3 74 -1.8 28.7
10:10 1022 30.18 852 25.16 2.3 36.2 74 -1.9 28.7
10:15 1022 30.18 852 25.16 2.3 36.2 71 -2.3 27.8
10:20 1022 30.18 852 25.16 2.4 36.3 73 -2 28.4
10:25 1022 30.18 852 25.16 2.6 36.7 73 -1.8 28.8
10:30 1022 30.18 852 25.16 2.6 36.7 74 -1.5 29.3
10:35 1022 30.18 852 25.16 2.5 36.6 72 -2 28.4
10:40 1023 30.21 852 25.16 2.6 36.6 72 -2 28.3
10:45 1023 30.21 852 25.16 2.7 36.9 74 -1.5 29.2
10:50 1023 30.21 852 25.16 2.8 37.1 73 -1.6 29.2
10:55 1022 30.18 852 25.16 3 37.4 71 -1.7 28.9
11:00 1022 30.18 852 25.16 2.9 37.3 71 -1.9 28.7
11:05 1023 30.21 852 25.16 3 37.4 70 -1.9 28.6
11:10 1023 30.21 852 25.16 3.1 37.6 70 -1.9 28.6
11:15 1023 30.21 852 25.16 3.5 38.3 67 -2 28.4
11:20 1022 30.18 852 25.16 3.2 37.8 69 -1.9 28.7
11:25 1023 30.21 852 25.16 3.3 37.9 69 -1.8 28.8
11:30 1022 30.18 852 25.16 3.4 38.2 69 -1.8 28.8
11:35 1022 30.18 852 25.16 3.4 38.1 69 -1.8 28.8
11:40 1022 30.18 852 25.16 3.5 38.2 69 -1.7 28.9
11:45 1022 30.18 852 25.16 3.5 38.2 69 -1.8 28.8
11:50 1022 30.18 852 25.16 3.4 38.2 69 -1.6 29.1
11:55 1022 30.18 852 25.16 3.5 38.2 68 -2 28.5
12:00 1022 30.18 852 25.16 3.2 37.8 68 -2.1 28.3
12:05 1022 30.18 852 25.16 3.1 37.5 70 -1.9 28.5
12:10 1022 30.18 852 25.16 3.3 37.9 69 -2 28.5
12:15 1023 30.21 852 25.16 3.2 37.8 70 -1.6 29.1
12:20 1023 30.21 852 25.16 3.2 37.8 70 -1.7 28.9
12:25 1023 30.21 852 25.16 3 37.4 70 -1.9 28.6
12:30 1023 30.21 852 25.16 2.7 36.8 71 -2 28.4
12:35 1023 30.21 852 25.16 2.5 36.6 74 -1.6 29.2
12:40 1023 30.21 852 25.16 2.5 36.6 74 -1.6 29.1
12:45 1023 30.21 852 25.16 2.4 36.2 77 -1.2 29.8
12:50 1023 30.21 852 25.16 2 35.7 80 -1.1 30
12:55 1023 30.21 852 25.16 2 35.5 82 -0.9 30.4
13:00 1023 30.21 852 25.16 2.1 35.7 80 -1 30.3
13:05 1023 30.21 852 25.16 1.9 35.4 79 -1.4 29.5
13:10 1022 30.18 852 25.16 1.8 35.2 80 -1.4 29.5
13:15 1022 30.18 852 25.16 1.9 35.4 79 -1.4 29.5
13:20 1022 30.18 852 25.16 1.8 35.2 78 -1.6 29.1
13:25 1022 30.18 852 25.16 1.7 35.1 77 -1.8 28.7
13:30 1022 30.18 852 25.16 1.7 35.1 78 -1.7 28.9
13:35 1022 30.18 851 25.13 1.8 35.2 77 -1.8 28.8
13:40 1022 30.18 851 25.13 1.6 34.9 79 -1.6 29.1
13:45 1022 30.18 851 25.13 1.6 34.9 78 -1.9 28.6
13:50 1022 30.18 851 25.13 1.7 35.1 75 -2.1 28.1
13:55 1022 30.18 851 25.13 1.7 35.1 74 -2.5 27.6
14:00 1022 30.18 851 25.13 1.7 35.1 74 -2.3 27.8
14:05 1022 30.18 851 25.13 1.8 35.2 74 -2.4 27.8
14:10 1022 30.18 851 25.13 1.7 35 75 -2.3 27.8
14:15 1022 30.18 851 25.13 1.7 35 76 -2.1 28.2
14:20 1022 30.18 851 25.13 1.8 35.2 76 -2 28.3
14:25 1022 30.18 851 25.13 2 35.6 75 -2.1 28.3
14:30 1022 30.18 851 25.13 1.9 35.4 74 -2.2 28
14:35 1022 30.18 851 25.13 1.8 35.2 74 -2.5 27.6
14:40 1022 30.18 851 25.13 1.8 35.2 74 -2.4 27.7
14:45 1022 30.18 851 25.13 2 35.5 74 -2.2 28
14:50 1022 30.18 851 25.13 1.9 35.5 75 -2.1 28.2
14:55 1022 30.18 851 25.13 1.8 35.2 76 -2 28.3
15:00 1022 30.18 851 25.13 1.6 34.9 77 -2 28.4
15:05 1022 30.18 851 25.13 1.5 34.8 77 -2 28.4
15:10 1022 30.18 851 25.13 1.6 34.8 78 -1.8 28.7
15:15 1022 30.18 851 25.13 1.6 34.9 79 -1.7 28.9
15:20 1022 30.18 851 25.13 1.7 35 78 -1.7 29
15:25 1022 30.18 851 25.13 1.7 35 78 -1.8 28.8
15:30 1022 30.18 851 25.13 1.6 35 78 -1.7 28.9
15:35 1022 30.18 851 25.13 1.5 34.8 79 -1.8 28.8
15:40 1021 30.15 851 25.13 1.6 35 79 -1.6 29.1
15:45 1022 30.18 851 25.13 1.7 35 79 -1.5 29.2
15:50 1022 30.18 851 25.13 1.7 35 77 -2 28.5
15:55 1022 30.18 851 25.13 1.8 35.2 75 -2.2 28
16:00 1022 30.18 851 25.13 1.7 35.1 75 -2.2 28.1
16:05 1021 30.15 851 25.13 1.8 35.2 75 -2.2 28.1
16:10 1022 30.18 851 25.13 1.9 35.4 74 -2.3 27.8
16:15 1022 30.18 851 25.13 1.9 35.5 73 -2.5 27.6
16:20 1022 30.18 851 25.13 1.9 35.5 74 -2.1 28.2
16:25 1022 30.18 851 25.13 2.1 35.7 71 -2.6 27.3
16:30 1022 30.18 851 25.13 1.9 35.5 71 -2.7 27.1
16:35 1022 30.18 851 25.13 1.9 35.5 71 -2.7 27.1
16:40 1022 30.18 851 25.13 2 35.6 72 -2.6 27.3
16:45 1022 30.18 851 25.13 2.1 35.7 71 -2.7 27.2
16:50 1022 30.18 851 25.13 2.1 35.8 71 -2.6 27.3
16:55 1022 30.18 851 25.13 2.2 35.9 72 -2.3 27.8
17:00 1022 30.18 851 25.13 2.3 36.2 70 -2.6 27.4
17:05 1022 30.18 851 25.13 2.2 36 74 -2 28.5
17:10 1022 30.18 851 25.13 2.1 35.8 74 -2.1 28.2
17:15 1022 30.18 851 25.13 2.1 35.8 75 -1.9 28.6
17:20 1022 30.18 851 25.13 1.9 35.5 74 -2.1 28.1
17:25 1022 30.18 851 25.13 2 35.7 75 -1.9 28.5
17:30 1022 30.18 851 25.13 2 35.6 75 -1.9 28.6
17:35 1022 30.18 851 25.13 1.9 35.4 74 -2.2 28.1
17:40 1022 30.18 851 25.13 2 35.6 74 -2.2 28.1
17:45 1022 30.18 851 25.13 2.1 35.8 73 -2.2 28
17:50 1022 30.18 851 25.13 2.1 35.7 73 -2.2 28
17:55 1022 30.18 851 25.13 2.1 35.7 72 -2.5 27.5
18:00 1022 30.18 851 25.13 2.1 35.7 71 -2.6 27.4
18:05 1022 30.18 851 25.13 2 35.6 72 -2.6 27.4
18:10 1022 30.18 851 25.13 2 35.7 73 -2.3 27.8
18:15 1022 30.18 851 25.13 1.9 35.5 73 -2.5 27.5
18:20 1022 30.18 851 25.13 1.8 35.3 73 -2.4 27.7
18:25 1022 30.18 851 25.13 1.9 35.4 74 -2.3 27.8
18:30 1022 30.18 851 25.13 1.8 35.3 74 -2.3 27.8
18:35 1022 30.18 851 25.13 1.8 35.3 75 -2.2 28.1
18:40 1022 30.18 851 25.13 1.7 35.1 76 -2.1 28.1
18:45 1022 30.18 851 25.13 1.6 34.8 76 -2.2 28.1
18:50 1022 30.18 851 25.13 1.5 34.8 77 -2.1 28.2
18:55 1022 30.18 851 25.13 1.6 34.8 76 -2.2 28
19:00 1022 30.18 851 25.13 1.5 34.8 76 -2.2 28.1
19:05 1022 30.18 851 25.13 1.5 34.7 77 -2.2 28.1
19:10 1022 30.18 851 25.13 1.4 34.6 77 -2.2 28
19:15 1022 30.18 851 25.13 1.4 34.6 76 -2.3 27.9
19:20 1022 30.18 851 25.13 1.4 34.5 77 -2.3 27.9
19:25 1022 30.18 851 25.13 1.4 34.5 76 -2.4 27.7
19:30 1022 30.18 851 25.13 1.3 34.4 76 -2.4 27.6
19:35 1022 30.18 851 25.13 1.4 34.4 76 -2.5 27.5
19:40 1022 30.18 851 25.13 1.4 34.4 75 -2.6 27.3
19:45 1022 30.18 851 25.13 1.4 34.4 75 -2.7 27.2
19:50 1022 30.18 851 25.13 1.4 34.5 74 -2.7 27.2
19:55 1022 30.18 851 25.13 1.4 34.6 73 -2.9 26.8
20:00 1022 30.18 851 25.13 1.4 34.5 74 -2.8 27
20:05 1022 30.18 851 25.13 1.4 34.5 75 -2.6 27.4
20:10 1022 30.18 851 25.13 1.3 34.3 77 -2.4 27.8
20:15 1022 30.18 851 25.13 1.2 34.1 77 -2.5 27.5
20:20 1022 30.18 851 25.13 1.1 34.1 76 -2.6 27.3
20:25 1022 30.18 851 25.13 1.1 34 76 -2.7 27.1
20:30 1022 30.18 851 25.13 1.1 34 75 -2.8 27
20:35 1022 30.18 851 25.13 1.1 34.1 74 -3 26.6
20:40 1022 30.18 851 25.13 1.2 34.1 75 -2.9 26.8
20:45 1022 30.18 851 25.13 1.2 34.1 75 -2.8 27
20:50 1022 30.18 851 25.13 1.1 34 76 -2.6 27.3
20:55 1022 30.18 851 25.13 0.9 33.7 79 -2.4 27.7
21:00 1022 30.18 851 25.13 0.8 33.5 79 -2.4 27.7
21:05 1022 30.18 851 25.13 0.8 33.5 79 -2.5 27.5
21:10 1022 30.18 851 25.13 0.8 33.5 78 -2.5 27.5
21:15 1022 30.18 851 25.13 0.8 33.5 78 -2.6 27.3
21:20 1022 30.18 851 25.13 0.8 33.5 79 -2.5 27.5
21:25 1022 30.18 852 25.16 0.8 33.4 79 -2.5 27.5
21:30 1022 30.18 852 25.16 0.8 33.4 79 -2.5 27.4
21:35 1022 30.18 851 25.13 0.7 33.3 77 -2.8 27
21:40 1022 30.18 852 25.16 0.8 33.4 78 -2.7 27.2
21:45 1022 30.18 852 25.16 0.8 33.5 77 -2.7 27.1
21:50 1022 30.18 851 25.13 0.8 33.5 76 -3 26.6
21:55 1022 30.18 851 25.13 0.9 33.7 74 -3.2 26.3
22:00 1022 30.18 851 25.13 1 33.8 74 -3.1 26.3
22:05 1022 30.18 851 25.13 1 33.7 74 -3.2 26.2
22:10 1022 30.18 851 25.13 1 33.8 74 -3.2 26.3
22:15 1022 30.18 852 25.16 1 33.8 74 -3.2 26.3
22:20 1022 30.18 851 25.13 1 33.7 74 -3.1 26.4
22:25 1022 30.18 851 25.13 1 33.8 74 -3.1 26.4
22:30 1022 30.18 852 25.16 1 33.8 75 -3 26.5
22:35 1023 30.21 852 25.16 1 33.7 75 -3 26.7
22:40 1023 30.21 852 25.16 0.9 33.7 75 -2.9 26.7
22:45 1022 30.18 852 25.16 0.9 33.7 75 -2.9 26.7
22:50 1022 30.18 852 25.16 0.9 33.7 76 -2.8 26.9
22:55 1022 30.18 852 25.16 0.9 33.6 76 -2.8 26.9
23:00 1022 30.18 851 25.13 0.9 33.7 76 -2.8 26.9
23:05 1022 30.18 851 25.13 0.9 33.6 76 -2.8 27
23:10 1022 30.18 851 25.13 0.9 33.6 76 -2.8 27
23:15 1022 30.18 851 25.13 0.9 33.6 77 -2.7 27.1
23:20 1022 30.18 851 25.13 0.9 33.5 77 -2.7 27.1
23:25 1022 30.18 851 25.13 0.8 33.4 78 -2.7 27.2
23:30 1022 30.18 851 25.13 0.8 33.4 78 -2.7 27.2
23:35 1022 30.18 851 25.13 0.7 33.3 78 -2.7 27.1
23:40 1022 30.18 851 25.13 0.7 33.3 77 -2.8 27
23:45 1022 30.18 851 25.13 0.7 33.3 77 -2.8 27
23:50 1022 30.18 851 25.13 0.7 33.2 78 -2.8 26.9
23:55 1022 30.18 851 25.13 0.6 33.1 78 -2.8 26.9
24:00 1022 30.18 851 25.13 0.6 33 78 -2.9 26.8